Lowndes, Missouri
Current Conditions -  °F | °C
As of 8:03 AM on Friday 24 Oct 2014 (Local Time) from KPOF Reporting Station
Haze Haze  
Wind Chill: 49°   Ceiling: Unl
Heat Index: 49°   Visibility: 6mi
Dew Point: 46°   Wind: 0mph
Humidity: 90%   Direction: NA
Pressure: 30.13"   Gusts: NA
Location:  37.15°N, 90.26°W
Report Text: KPOF 241303Z AUTO 00000KT 6SM BR SCT026 SCT047 09/08 A3013 RMK AO2 T00940078
Loading
Personal Weather Stations






























Interactive Weather Map
Tropical Storm Tracking
New forecast layout! Learn more

10-Day Weather Forecast

Advertisements
Track Severe Weather on mobile